createdAt,value
2023-05-03T00:02:10.841Z,0.00
2023-05-03T00:04:38.085Z,0.00
2023-05-03T00:07:05.049Z,0.00
2023-05-03T00:09:33.809Z,0.00
2023-05-03T00:12:01.728Z,0.10
2023-05-03T00:14:28.929Z,0.00
2023-05-03T00:16:55.868Z,0.00
2023-05-03T00:19:31.416Z,0.00
2023-05-03T00:21:59.275Z,0.00
2023-05-03T00:24:26.716Z,0.00
2023-05-03T00:26:53.606Z,0.10
2023-05-03T00:29:22.421Z,0.00
2023-05-03T00:31:49.185Z,0.00
2023-05-03T00:34:16.342Z,0.10
2023-05-03T00:36:43.221Z,0.00
2023-05-03T00:39:10.155Z,0.00
2023-05-03T00:41:37.104Z,0.00
2023-05-03T00:44:04.108Z,0.00
2023-05-03T00:46:31.115Z,0.00
2023-05-03T00:48:58.330Z,0.00
2023-05-03T00:51:27.919Z,0.00
2023-05-03T00:53:54.957Z,0.00
2023-05-03T00:56:23.439Z,0.00
2023-05-03T00:58:53.109Z,0.00
2023-05-03T01:01:20.578Z,0.00
2023-05-03T01:03:48.200Z,0.00
2023-05-03T01:07:03.604Z,0.00
2023-05-03T01:09:59.109Z,0.00
2023-05-03T01:12:53.125Z,0.00
2023-05-03T01:15:32.399Z,0.00
2023-05-03T01:18:07.984Z,0.00
2023-05-03T01:20:37.329Z,0.00
2023-05-03T01:23:34.112Z,0.00
2023-05-03T01:26:24.429Z,0.00
2023-05-03T01:28:52.272Z,0.00
2023-05-03T01:31:44.508Z,0.00
2023-05-03T01:34:17.315Z,0.08
2023-05-03T01:36:45.192Z,0.00
2023-05-03T01:39:24.657Z,0.03
2023-05-03T01:41:52.315Z,0.00
2023-05-03T01:44:20.957Z,0.00
2023-05-03T01:46:48.000Z,0.00
2023-05-03T01:49:14.847Z,0.00
2023-05-03T01:51:41.785Z,0.00
2023-05-03T01:54:08.754Z,0.03
2023-05-03T01:56:36.961Z,0.00
2023-05-03T01:59:04.553Z,0.00
2023-05-03T02:01:31.683Z,0.00
2023-05-03T02:03:58.714Z,0.00
2023-05-03T02:06:26.364Z,0.00
2023-05-03T02:08:54.486Z,0.20
2023-05-03T02:11:21.740Z,0.00
2023-05-03T02:13:50.760Z,0.00
2023-05-03T02:16:21.082Z,0.00
2023-05-03T02:18:48.542Z,0.00
2023-05-03T02:21:15.457Z,0.00
2023-05-03T02:23:42.381Z,0.10
2023-05-03T02:26:09.228Z,0.00
2023-05-03T02:28:36.179Z,0.00
2023-05-03T02:31:03.325Z,0.00
2023-05-03T02:33:30.347Z,0.00
2023-05-03T02:35:57.268Z,0.00
2023-05-03T02:38:24.169Z,0.00
2023-05-03T02:40:51.098Z,0.00
2023-05-03T02:43:17.940Z,0.00
2023-05-03T02:45:44.784Z,0.10
2023-05-03T02:48:12.544Z,0.10
2023-05-03T02:50:40.095Z,0.00
2023-05-03T02:53:07.119Z,0.00
2023-05-03T02:55:34.345Z,0.00
2023-05-03T02:58:01.536Z,0.00
2023-05-03T03:00:28.772Z,0.00
2023-05-03T03:02:55.813Z,0.00
2023-05-03T03:05:22.863Z,0.00
2023-05-03T03:07:50.380Z,0.00
2023-05-03T03:10:17.335Z,0.00
2023-05-03T03:12:44.589Z,0.00
2023-05-03T03:15:11.737Z,0.00
2023-05-03T03:17:39.517Z,0.00
2023-05-03T03:20:11.563Z,0.00
2023-05-03T03:22:41.437Z,0.00
2023-05-03T03:25:09.878Z,0.00
2023-05-03T03:27:38.426Z,0.00
2023-05-03T03:30:08.248Z,0.00
2023-05-03T03:32:35.509Z,0.00
2023-05-03T03:35:02.520Z,0.00
2023-05-03T03:37:29.364Z,0.00
2023-05-03T03:39:56.534Z,0.00
2023-05-03T03:42:25.842Z,0.00
2023-05-03T03:44:52.814Z,0.00
2023-05-03T03:47:22.332Z,0.03
2023-05-03T03:49:49.406Z,0.00
2023-05-03T03:52:16.333Z,0.10
2023-05-03T03:54:43.264Z,0.10
2023-05-03T03:57:10.253Z,0.15
2023-05-03T03:59:37.217Z,0.05
2023-05-03T04:02:04.095Z,0.00
2023-05-03T04:04:32.160Z,0.00
2023-05-03T04:06:59.051Z,0.00
2023-05-03T04:09:25.989Z,0.00
2023-05-03T04:11:52.887Z,0.10
2023-05-03T04:14:19.827Z,0.00
2023-05-03T04:16:46.708Z,0.00
2023-05-03T04:19:14.002Z,0.10
2023-05-03T04:21:40.870Z,0.10
2023-05-03T04:24:08.079Z,0.00
2023-05-03T04:26:35.367Z,0.10
2023-05-03T04:29:02.751Z,0.00
2023-05-03T04:31:30.192Z,0.20
2023-05-03T04:33:58.096Z,0.10
2023-05-03T04:36:30.086Z,0.10
2023-05-03T04:38:57.323Z,0.10
2023-05-03T04:41:24.527Z,0.10
2023-05-03T04:43:52.217Z,0.10
2023-05-03T04:46:19.297Z,0.00
2023-05-03T04:48:46.521Z,0.20
2023-05-03T04:51:13.514Z,0.10
2023-05-03T04:53:40.468Z,0.10
2023-05-03T04:56:07.736Z,0.10
2023-05-03T04:58:34.675Z,0.28
2023-05-03T05:01:02.537Z,0.13
2023-05-03T05:03:31.544Z,0.10
2023-05-03T05:05:58.767Z,0.10
2023-05-03T05:08:25.780Z,0.10
2023-05-03T05:10:52.648Z,0.22
2023-05-03T05:13:19.561Z,0.20
2023-05-03T05:15:46.464Z,0.10
2023-05-03T05:18:13.476Z,0.10
2023-05-03T05:20:40.591Z,0.20
2023-05-03T05:23:07.471Z,0.10
2023-05-03T05:25:34.434Z,0.10
2023-05-03T05:28:01.297Z,0.20
2023-05-03T05:30:28.241Z,0.20
2023-05-03T05:32:55.479Z,0.10
2023-05-03T05:35:23.135Z,0.10
2023-05-03T05:37:50.044Z,0.43
2023-05-03T05:40:17.040Z,0.10
2023-05-03T05:42:46.224Z,0.20
2023-05-03T05:45:13.137Z,0.28
2023-05-03T05:47:40.064Z,0.10
2023-05-03T05:50:17.097Z,0.20
2023-05-03T05:52:44.919Z,0.10
2023-05-03T05:55:14.717Z,0.10
2023-05-03T05:57:41.704Z,0.30
2023-05-03T06:00:14.525Z,0.17
2023-05-03T06:02:42.391Z,0.10
2023-05-03T06:05:10.194Z,0.20
2023-05-03T06:07:37.409Z,0.20
2023-05-03T06:10:08.022Z,0.20
2023-05-03T06:12:34.925Z,0.20
2023-05-03T06:15:03.202Z,0.30
2023-05-03T06:17:30.691Z,0.20
2023-05-03T06:19:58.292Z,0.38
2023-05-03T06:22:26.443Z,0.40
2023-05-03T06:24:53.354Z,0.28
2023-05-03T06:27:20.187Z,0.20
2023-05-03T06:29:48.145Z,0.30
2023-05-03T06:32:14.992Z,0.40
2023-05-03T06:34:41.856Z,0.22
2023-05-03T06:37:08.736Z,0.40
2023-05-03T06:39:35.664Z,0.20
2023-05-03T06:42:02.730Z,0.20
2023-05-03T06:44:29.656Z,0.10
2023-05-03T06:46:56.677Z,0.30
2023-05-03T06:49:23.607Z,0.22
2023-05-03T06:51:50.605Z,0.40
2023-05-03T06:54:17.690Z,0.30
2023-05-03T06:56:44.593Z,0.50
2023-05-03T06:59:11.456Z,0.45
2023-05-03T07:01:38.458Z,0.32
2023-05-03T07:04:05.664Z,0.32
2023-05-03T07:06:40.745Z,0.40
2023-05-03T07:09:08.412Z,0.40
2023-05-03T07:11:37.304Z,0.40
2023-05-03T07:14:04.315Z,0.52
2023-05-03T07:16:31.385Z,0.43
2023-05-03T07:18:58.317Z,0.60
2023-05-03T07:21:27.062Z,0.73
2023-05-03T07:23:53.924Z,0.45
2023-05-03T07:26:21.644Z,0.57
2023-05-03T07:28:48.546Z,0.50
2023-05-03T07:31:15.715Z,0.50
2023-05-03T07:33:43.070Z,0.50
2023-05-03T07:36:10.223Z,0.60
2023-05-03T07:38:37.376Z,0.52
2023-05-03T07:41:04.401Z,0.77
2023-05-03T07:43:31.500Z,0.70
2023-05-03T07:45:58.640Z,0.52
2023-05-03T07:48:25.608Z,0.60
2023-05-03T07:50:52.517Z,0.60
2023-05-03T07:53:19.434Z,0.80
2023-05-03T07:55:46.263Z,0.70
2023-05-03T07:58:13.136Z,0.50
2023-05-03T08:00:40.169Z,0.75
2023-05-03T08:03:07.249Z,0.80
2023-05-03T08:05:36.631Z,0.80
2023-05-03T08:08:07.072Z,0.70
2023-05-03T08:10:37.879Z,0.80
2023-05-03T08:13:06.435Z,0.70
2023-05-03T08:15:33.662Z,0.80
2023-05-03T08:18:01.211Z,1.30
2023-05-03T08:20:28.181Z,0.73
2023-05-03T08:22:57.052Z,0.70
2023-05-03T08:25:26.152Z,0.60
2023-05-03T08:27:53.260Z,0.80
2023-05-03T08:30:22.124Z,0.60
2023-05-03T08:32:49.462Z,0.70
2023-05-03T08:35:16.482Z,0.80
2023-05-03T08:37:44.220Z,0.90
2023-05-03T08:40:14.058Z,1.10
2023-05-03T08:42:45.378Z,1.08
2023-05-03T08:45:14.912Z,1.00
2023-05-03T08:47:45.549Z,1.20
2023-05-03T08:50:14.050Z,0.90
2023-05-03T08:52:42.741Z,0.80
2023-05-03T08:55:10.789Z,0.80
2023-05-03T08:57:37.972Z,0.90
2023-05-03T09:00:12.830Z,0.70
2023-05-03T09:02:40.751Z,0.50
2023-05-03T09:05:17.074Z,1.08
2023-05-03T09:08:11.170Z,1.13
2023-05-03T09:10:42.833Z,0.70
2023-05-03T09:13:10.704Z,1.00
2023-05-03T09:15:37.852Z,0.65
2023-05-03T09:18:18.792Z,0.90
2023-05-03T09:20:52.284Z,0.80
2023-05-03T09:26:00.103Z,0.98
2023-05-03T09:28:27.511Z,0.70
2023-05-03T09:31:07.746Z,0.70
2023-05-03T09:33:35.010Z,0.70
2023-05-03T09:36:04.048Z,0.60
2023-05-03T09:38:33.762Z,0.55
2023-05-03T09:41:01.640Z,0.70
2023-05-03T09:43:31.397Z,0.50
2023-05-03T09:46:09.306Z,0.77
2023-05-03T09:48:37.789Z,0.90
2023-05-03T09:51:05.668Z,0.80
2023-05-03T09:53:33.556Z,0.80
2023-05-03T09:56:03.281Z,0.90
2023-05-03T09:58:35.162Z,0.70
2023-05-03T10:01:02.265Z,0.70
2023-05-03T10:03:39.569Z,0.63
2023-05-03T10:06:30.124Z,0.80
2023-05-03T10:09:16.619Z,0.80
2023-05-03T10:11:51.770Z,0.60
2023-05-03T10:14:20.455Z,0.88
2023-05-03T10:16:53.856Z,0.68
2023-05-03T10:19:41.810Z,1.05
2023-05-03T10:22:12.046Z,1.00
2023-05-03T10:25:01.704Z,0.85
2023-05-03T10:27:42.007Z,0.70
2023-05-03T10:30:26.952Z,1.00
2023-05-03T10:32:54.109Z,0.80
2023-05-03T10:35:21.156Z,1.25
2023-05-03T10:37:51.994Z,0.85
2023-05-03T10:40:19.494Z,0.70
2023-05-03T10:42:51.917Z,0.60
2023-05-03T10:45:39.186Z,1.10
2023-05-03T10:48:11.893Z,0.95
2023-05-03T10:50:39.948Z,0.80
2023-05-03T10:53:07.190Z,1.10
2023-05-03T10:55:34.649Z,3.78
2023-05-03T10:58:03.536Z,0.80
2023-05-03T11:00:37.733Z,0.70
2023-05-03T11:03:12.034Z,0.77
2023-05-03T11:05:39.526Z,1.05
2023-05-03T11:08:09.652Z,0.55
2023-05-03T11:10:36.654Z,0.80
2023-05-03T11:13:03.512Z,0.50
2023-05-03T11:15:31.197Z,0.60
2023-05-03T11:18:02.175Z,0.65
2023-05-03T11:20:29.447Z,0.90
2023-05-03T11:22:57.841Z,0.50
2023-05-03T11:25:24.815Z,0.73
2023-05-03T11:27:51.688Z,0.63
2023-05-03T11:30:18.693Z,1.42
2023-05-03T11:32:45.680Z,1.05
2023-05-03T11:35:17.984Z,0.70
2023-05-03T11:37:45.542Z,1.02
2023-05-03T11:40:17.159Z,1.00
2023-05-03T11:42:59.001Z,0.90
2023-05-03T11:45:29.829Z,1.05
2023-05-03T11:47:57.632Z,1.02
2023-05-03T11:50:44.784Z,1.30
2023-05-03T11:53:13.196Z,1.27
2023-05-03T11:55:43.741Z,0.80
2023-05-03T11:58:18.517Z,1.05
2023-05-03T12:00:47.645Z,1.10
2023-05-03T12:03:30.710Z,0.95
2023-05-03T12:06:01.812Z,0.90
2023-05-03T12:08:32.165Z,0.98
2023-05-03T12:11:03.176Z,1.00
2023-05-03T12:13:39.936Z,3.33
2023-05-03T12:16:14.318Z,0.85
2023-05-03T12:18:55.746Z,1.00
2023-05-03T12:23:57.162Z,0.90
2023-05-03T12:26:25.717Z,0.90
2023-05-03T12:28:56.013Z,0.90
2023-05-03T12:31:24.458Z,0.80
2023-05-03T12:36:24.865Z,0.80
2023-05-03T12:38:56.156Z,1.00
2023-05-03T12:41:52.734Z,0.80
2023-05-03T12:44:16.755Z,1.00
2023-05-03T12:46:45.440Z,0.73
2023-05-03T12:49:15.301Z,0.73
2023-05-03T12:51:43.175Z,0.63
2023-05-03T12:54:12.000Z,0.60
2023-05-03T12:56:40.705Z,0.63
2023-05-03T12:59:39.116Z,0.80
2023-05-03T13:06:59.561Z,0.73
2023-05-03T13:09:37.823Z,0.80
2023-05-03T13:12:16.050Z,0.60
2023-05-03T13:14:42.977Z,0.90
2023-05-03T13:17:10.382Z,0.82
2023-05-03T13:19:37.756Z,0.70
2023-05-03T13:22:05.207Z,0.50
2023-05-03T13:24:32.063Z,0.77
2023-05-03T13:26:58.976Z,0.60
2023-05-03T13:29:26.789Z,0.75
2023-05-03T13:31:56.199Z,0.68
2023-05-03T13:34:23.425Z,0.70
2023-05-03T13:36:50.486Z,0.73
2023-05-03T13:39:19.155Z,1.00
2023-05-03T13:41:48.265Z,0.70
2023-05-03T13:44:15.453Z,0.70
2023-05-03T13:46:43.589Z,0.60
2023-05-03T13:49:11.368Z,0.90
2023-05-03T13:51:38.581Z,0.82
2023-05-03T13:54:07.277Z,0.85
2023-05-03T13:56:35.306Z,0.70
2023-05-03T13:59:02.313Z,0.70
2023-05-03T14:01:29.575Z,0.82
2023-05-03T14:03:56.633Z,0.80
2023-05-03T14:06:23.794Z,0.93
2023-05-03T14:08:54.260Z,0.93
2023-05-03T14:11:22.209Z,1.00
2023-05-03T14:13:57.062Z,0.80
2023-05-03T14:16:39.851Z,0.88
2023-05-03T14:19:10.748Z,0.70
2023-05-03T14:21:38.555Z,0.80
2023-05-03T14:24:06.628Z,0.80
2023-05-03T14:26:34.349Z,0.90
2023-05-03T14:29:01.696Z,0.95
2023-05-03T14:31:28.787Z,1.02
2023-05-03T14:33:55.753Z,0.88
2023-05-03T14:36:23.128Z,0.80
2023-05-03T14:38:50.027Z,0.77
2023-05-03T14:41:17.095Z,0.88
2023-05-03T14:43:45.142Z,1.00
2023-05-03T14:46:12.055Z,0.80
2023-05-03T14:48:39.054Z,0.80
2023-05-03T14:51:08.798Z,1.23
2023-05-03T14:53:35.880Z,0.80
2023-05-03T14:56:02.824Z,0.90
2023-05-03T14:58:29.982Z,0.82
2023-05-03T15:00:56.959Z,1.05
2023-05-03T15:03:23.938Z,0.75
2023-05-03T15:05:51.224Z,0.90
2023-05-03T15:08:20.637Z,0.95
2023-05-03T15:10:48.250Z,0.88
2023-05-03T15:13:16.333Z,0.80
2023-05-03T15:15:44.319Z,1.20
2023-05-03T15:18:11.601Z,0.98
2023-05-03T15:20:38.952Z,0.88
2023-05-03T15:23:06.293Z,0.80
2023-05-03T15:25:33.321Z,0.90
2023-05-03T15:28:03.720Z,0.90
2023-05-03T15:30:32.970Z,0.73
2023-05-03T15:33:01.134Z,0.90
2023-05-03T15:35:28.399Z,1.00
2023-05-03T15:37:55.432Z,0.98
2023-05-03T15:40:25.148Z,0.88
2023-05-03T15:42:53.671Z,0.80
2023-05-03T15:45:23.270Z,1.05
2023-05-03T15:47:50.480Z,1.05
2023-05-03T15:50:17.480Z,0.98
2023-05-03T15:52:46.792Z,1.10
2023-05-03T15:55:14.258Z,0.90
2023-05-03T15:57:41.243Z,0.77
2023-05-03T16:00:12.682Z,0.98
2023-05-03T16:02:40.708Z,0.95
2023-05-03T16:05:08.278Z,0.90
2023-05-03T16:07:35.216Z,1.10
2023-05-03T16:10:02.544Z,1.10
2023-05-03T16:12:29.699Z,0.80
2023-05-03T16:14:56.788Z,0.90
2023-05-03T16:17:23.894Z,0.90
2023-05-03T16:19:50.803Z,1.00
2023-05-03T16:22:17.724Z,1.05
2023-05-03T16:24:46.926Z,1.00
2023-05-03T16:27:13.906Z,1.40
2023-05-03T16:29:40.873Z,0.98
2023-05-03T16:32:09.861Z,1.20
2023-05-03T16:34:37.933Z,1.00
2023-05-03T16:37:05.181Z,1.15
2023-05-03T16:39:32.789Z,1.08
2023-05-03T16:41:59.809Z,1.17
2023-05-03T16:44:26.881Z,1.30
2023-05-03T16:46:53.899Z,0.80
2023-05-03T16:49:21.091Z,0.90
2023-05-03T16:51:48.024Z,1.00
2023-05-03T16:54:16.840Z,1.00
2023-05-03T16:56:44.531Z,1.08
2023-05-03T16:59:11.799Z,0.80
2023-05-03T17:01:38.858Z,0.70
2023-05-03T17:04:06.684Z,1.00
2023-05-03T17:06:34.007Z,0.90
2023-05-03T17:09:01.331Z,0.73
2023-05-03T17:11:28.355Z,0.70
2023-05-03T17:13:55.541Z,0.98
2023-05-03T17:16:23.059Z,0.85
2023-05-03T17:18:50.384Z,0.90
2023-05-03T17:21:19.274Z,1.00
2023-05-03T17:23:46.733Z,0.82
2023-05-03T17:26:14.541Z,1.20
2023-05-03T17:28:43.971Z,0.98
2023-05-03T17:31:11.037Z,1.00
2023-05-03T17:33:39.136Z,0.85
2023-05-03T17:36:06.284Z,1.05
2023-05-03T17:38:34.502Z,1.10
2023-05-03T17:41:08.598Z,0.80
2023-05-03T17:43:36.612Z,1.13
2023-05-03T17:46:12.141Z,1.10
2023-05-03T17:48:40.804Z,1.27
2023-05-03T17:51:12.425Z,1.00
2023-05-03T17:53:40.155Z,1.00
2023-05-03T17:56:17.920Z,1.27
2023-05-03T17:58:46.582Z,1.42
2023-05-03T18:01:13.815Z,1.20
2023-05-03T18:03:41.881Z,1.20
2023-05-03T18:06:10.985Z,1.10
2023-05-03T18:08:38.192Z,1.30
2023-05-03T18:11:05.158Z,1.30
2023-05-03T18:13:35.009Z,1.40
2023-05-03T18:16:05.042Z,1.38
2023-05-03T18:18:32.014Z,1.40
2023-05-03T18:21:00.295Z,1.33
2023-05-03T18:23:27.374Z,1.40
2023-05-03T18:25:54.401Z,1.33
2023-05-03T18:28:22.676Z,1.52
2023-05-03T18:30:56.041Z,1.38
2023-05-03T18:33:23.133Z,1.65
2023-05-03T18:35:53.584Z,1.73
2023-05-03T18:38:21.825Z,1.73
2023-05-03T18:40:50.287Z,1.60
2023-05-03T18:43:17.369Z,1.50
2023-05-03T18:45:45.395Z,1.88
2023-05-03T18:48:12.732Z,1.48
2023-05-03T18:50:42.896Z,1.58
2023-05-03T18:53:14.016Z,1.77
2023-05-03T18:55:42.058Z,1.70
2023-05-03T18:58:08.905Z,1.70
2023-05-03T19:00:35.973Z,1.40
2023-05-03T19:03:03.690Z,1.77
2023-05-03T19:05:30.705Z,1.70
2023-05-03T19:07:58.402Z,1.90
2023-05-03T19:10:26.270Z,1.70
2023-05-03T19:12:54.343Z,1.92
2023-05-03T19:15:21.481Z,1.95
2023-05-03T19:17:49.419Z,1.92
2023-05-03T19:20:18.195Z,2.10
2023-05-03T19:22:46.513Z,1.80
2023-05-03T19:25:14.205Z,1.92
2023-05-03T19:27:41.250Z,2.13
2023-05-03T19:30:09.585Z,1.85
2023-05-03T19:32:39.064Z,2.00
2023-05-03T19:35:09.794Z,2.00
2023-05-03T19:37:37.780Z,1.95
2023-05-03T19:40:09.245Z,1.90
2023-05-03T19:42:36.439Z,1.75
2023-05-03T19:45:04.200Z,1.58
2023-05-03T19:47:39.311Z,1.60
2023-05-03T19:50:08.061Z,1.55
2023-05-03T19:52:35.216Z,1.80
2023-05-03T19:55:02.605Z,2.00
2023-05-03T19:57:30.250Z,1.90
2023-05-03T19:59:57.179Z,1.75
2023-05-03T20:02:25.160Z,1.80
2023-05-03T20:04:52.111Z,1.95
2023-05-03T20:07:19.210Z,1.60
2023-05-03T20:09:46.221Z,1.60
2023-05-03T20:12:14.071Z,1.77
2023-05-03T20:14:41.522Z,1.85
2023-05-03T20:17:08.528Z,1.70
2023-05-03T20:19:35.353Z,1.80
2023-05-03T20:22:02.641Z,2.25
2023-05-03T20:24:29.635Z,1.92
2023-05-03T20:26:57.028Z,2.28
2023-05-03T20:29:23.987Z,2.22
2023-05-03T20:31:53.491Z,2.50
2023-05-03T20:34:23.431Z,1.83
2023-05-03T20:36:52.890Z,2.47
2023-05-03T20:39:21.031Z,2.10
2023-05-03T20:41:48.160Z,2.10
2023-05-03T20:44:16.099Z,2.15
2023-05-03T20:46:45.480Z,1.98
2023-05-03T20:49:13.268Z,2.10
2023-05-03T20:51:40.531Z,2.00
2023-05-03T20:54:07.417Z,2.05
2023-05-03T20:56:44.207Z,2.00
2023-05-03T20:59:11.135Z,2.10
2023-05-03T21:01:40.539Z,1.95
2023-05-03T21:04:07.683Z,2.13
2023-05-03T21:06:38.039Z,1.80
2023-05-03T21:09:05.920Z,2.05
2023-05-03T21:11:32.964Z,1.52
2023-05-03T21:14:01.662Z,1.90
2023-05-03T21:16:29.073Z,1.90
2023-05-03T21:18:56.126Z,1.85
2023-05-03T21:21:23.033Z,1.70
2023-05-03T21:23:50.083Z,1.90
2023-05-03T21:26:17.017Z,1.88
2023-05-03T21:28:43.860Z,1.98
2023-05-03T21:31:10.782Z,2.13
2023-05-03T21:33:37.717Z,2.08
2023-05-03T21:36:04.731Z,2.08
2023-05-03T21:38:31.604Z,1.90
2023-05-03T21:41:08.070Z,1.70
2023-05-03T21:43:36.781Z,1.85
2023-05-03T21:46:07.903Z,1.80
2023-05-03T21:48:38.085Z,1.90
2023-05-03T21:51:05.057Z,2.10
2023-05-03T21:53:32.014Z,1.70
2023-05-03T21:55:59.015Z,2.08
2023-05-03T21:58:26.095Z,1.88
2023-05-03T22:00:53.647Z,1.95
2023-05-03T22:03:20.687Z,1.73
2023-05-03T22:05:48.772Z,2.08
2023-05-03T22:08:18.096Z,2.05
2023-05-03T22:10:46.058Z,2.10
2023-05-03T22:13:13.109Z,1.90
2023-05-03T22:15:40.289Z,2.15
2023-05-03T22:18:07.419Z,1.90
2023-05-03T22:20:34.405Z,1.95
2023-05-03T22:23:01.340Z,1.80
2023-05-03T22:25:30.708Z,1.90
2023-05-03T22:27:58.887Z,2.00
2023-05-03T22:30:25.763Z,1.98
2023-05-03T22:32:53.220Z,1.75
2023-05-03T22:35:20.089Z,1.90
2023-05-03T22:37:46.948Z,2.35
2023-05-03T22:40:14.093Z,2.10
2023-05-03T22:42:41.001Z,2.10
2023-05-03T22:45:08.881Z,1.80
2023-05-03T22:47:35.731Z,1.83
2023-05-03T22:50:03.029Z,1.92
2023-05-03T22:52:31.729Z,2.10
2023-05-03T22:54:58.655Z,1.90
2023-05-03T22:57:25.530Z,1.80
2023-05-03T22:59:52.426Z,1.90
2023-05-03T23:02:19.393Z,1.92
2023-05-03T23:04:46.361Z,2.05
2023-05-03T23:07:13.419Z,2.08
2023-05-03T23:09:40.367Z,2.20
2023-05-03T23:12:07.264Z,2.33
2023-05-03T23:14:34.640Z,2.20
2023-05-03T23:17:03.327Z,2.05
2023-05-03T23:19:30.300Z,2.20
2023-05-03T23:21:57.181Z,2.05
2023-05-03T23:24:24.080Z,2.13
2023-05-03T23:26:50.957Z,2.08
2023-05-03T23:29:18.350Z,1.95
2023-05-03T23:31:45.892Z,1.83
2023-05-03T23:34:13.232Z,1.90
2023-05-03T23:36:40.087Z,1.88
2023-05-03T23:39:07.099Z,2.00
2023-05-03T23:41:34.131Z,2.10
2023-05-03T23:44:01.079Z,2.33
2023-05-03T23:46:28.056Z,2.28
2023-05-03T23:48:55.116Z,2.47
2023-05-03T23:51:22.043Z,2.30
2023-05-03T23:53:48.906Z,2.72
2023-05-03T23:56:15.964Z,2.20
2023-05-03T23:58:42.902Z,2.60
